Kezdőlap
METAR-TAF:

METAR-TAF

Repülőterek :

Fairfield Municipal Airport

Fairfield, Iowa, Amerikai Egyesült Államok

földrajzi szélesség: 41-03N, földrajzi hosszúság: 091-59W, magasság: 244 m

Jelenlegi meteorológiai megfigyelések

A jelentés 18 perccel ezelõtt készült, 08:15 UTC
Déli szél 6 kt
Hőmérséklet 23°C
Páratartalom 100%
Légköri nyomás 1014 hPa
Látótávolság: 16.1 km
Derült ég

METAR: KFFL 100815Z AUTO 18006KT 10SM CLR 23/23 A2993 RMK A01

Idő: 03:33 (08:33 UTC)


TAF: hiányzik

Meteorológiai megfigyelések és előrejelzések több, mint 4000 repülőtéren (METAR és TAF jelentéseket).

A térképen piros és sárga pontok jelzik az elérhető meteorológiai állomásokat.

Mozgassa az egeret a pont fölött, hogy megjelenjen az állomás neve.

Azután kattintson az időjárási megfigyelések és előrejelzések megtekintéséhez.

A térkép megváltoztatása: kattintson a fekete keresztel jelölt zöld gombra ráközelítéshez, a vonallal jelölt zöld gombra távolításhoz, vagy a zöld nyilakra a szomszédos térképek eléréséhez.


METAR-TAF: